Time;durP1;ratioP1;P1;durP2;ratioP2;P2;SDS_P1;SDS_P2;PMS_P1;PMS_P2;Temp;Humidity;BMP_temperature;BMP_pressure;BME280_temperature;BME280_humidity;BME280_pressure;Samples;Min_cycle;Max_cycle;Signal;HPM_P1;HPM_P2
2022/05/02 00:00:24;;;;;;;41.85;28.08;;;10.60;88.10;;;;;;5068540;28;20037;-73
2022/05/02 00:02:52;;;;;;;45.38;28.55;;;10.60;88.10;;;;;;5066782;28;20055;-73
2022/05/02 00:05:21;;;;;;;42.35;28.83;;;10.60;88.10;;;;;;5040309;28;20521;-73
2022/05/02 00:07:49;;;;;;;43.30;27.23;;;10.60;88.10;;;;;;5068241;28;20048;-73
2022/05/02 00:10:17;;;;;;;44.00;28.50;;;10.60;88.20;;;;;;5065852;28;20041;-73
2022/05/02 00:12:45;;;;;;;41.08;27.48;;;10.60;88.10;;;;;;5060364;28;20053;-73
2022/05/02 00:15:13;;;;;;;40.55;28.42;;;10.50;88.20;;;;;;5075945;28;20056;-72
2022/05/02 00:17:56;;;;;;;40.85;27.25;;;10.60;88.20;;;;;;5087878;28;20044;-73
2022/05/02 00:20:29;;;;;;;43.90;28.85;;;10.50;88.20;;;;;;5073228;28;20486;-73
2022/05/02 00:23:02;;;;;;;44.88;27.63;;;10.50;88.20;;;;;;5077020;28;20055;-73
2022/05/02 00:25:31;;;;;;;;;;;10.50;88.30;;;;;;5072101;28;20040;-72
2022/05/02 00:27:59;;;;;;;45.08;26.88;;;10.50;88.30;;;;;;5070345;28;19920;-72
2022/05/02 00:30:28;;;;;;;40.42;27.65;;;10.50;88.20;;;;;;5042910;28;20060;-72
2022/05/02 00:32:57;;;;;;;39.15;27.20;;;10.50;88.20;;;;;;5051200;28;20053;-72
2022/05/02 00:35:25;;;;;;;41.78;27.90;;;10.50;88.30;;;;;;5051223;28;20045;-72
2022/05/02 00:37:53;;;;;;;41.58;27.38;;;10.50;88.30;;;;;;5063821;28;20053;-72
2022/05/02 00:40:23;;;;;;;49.88;29.20;;;10.50;88.30;;;;;;5070789;28;20053;-72
2022/05/02 00:42:51;;;;;;;42.22;28.02;;;10.50;88.40;;;;;;5039134;28;20060;-72
2022/05/02 00:45:20;;;;;;;43.33;27.77;;;10.40;88.40;;;;;;5042216;28;20512;-72
2022/05/02 00:48:00;;;;;;;44.30;28.85;;;10.50;88.40;;;;;;5051664;28;20068;-72
2022/05/02 00:50:32;;;;;;;43.28;28.60;;;10.50;88.40;;;;;;5060702;28;20055;-72
2022/05/02 00:53:02;;;;;;;41.80;28.50;;;10.50;88.40;;;;;;5055129;28;20041;-72
2022/05/02 00:55:30;;;;;;;44.15;30.13;;;10.50;88.40;;;;;;5062010;28;20045;-72
2022/05/02 00:58:00;;;;;;;43.28;28.55;;;10.50;88.50;;;;;;5055090;28;20398;-72
2022/05/02 01:00:30;;;;;;;45.92;29.05;;;10.50;88.50;;;;;;5057449;28;20559;-72
2022/05/02 01:02:58;;;;;;;45.50;29.25;;;10.40;88.50;;;;;;5054547;28;20056;-73
2022/05/02 01:05:27;;;;;;;46.92;29.02;;;10.40;88.50;;;;;;5053318;28;20045;-73
2022/05/02 01:07:55;;;;;;;45.92;28.02;;;10.40;88.50;;;;;;5074969;28;20520;-73
2022/05/02 01:10:24;;;;;;;45.13;29.42;;;10.40;88.50;;;;;;5074649;28;20049;-73
2022/05/02 01:12:52;;;;;;;43.22;29.48;;;10.40;88.50;;;;;;5059130;28;20083;-72
2022/05/02 01:15:20;;;;;;;45.80;28.73;;;10.50;88.50;;;;;;5074715;28;20041;-72
2022/05/02 01:17:47;;;;;;;45.50;29.17;;;10.40;88.50;;;;;;5075298;28;20048;-72
2022/05/02 01:20:15;;;;;;;48.03;29.80;;;10.40;88.50;;;;;;5080513;28;20481;-72
2022/05/02 01:22:43;;;;;;;47.88;29.80;;;10.40;88.60;;;;;;5092992;28;20048;-73
2022/05/02 01:25:11;;;;;;;47.22;29.65;;;10.40;88.60;;;;;;5089653;28;20405;-72
2022/05/02 01:27:39;;;;;;;50.15;30.83;;;10.40;88.60;;;;;;5093123;28;20056;-72
2022/05/02 01:30:07;;;;;;;47.50;28.95;;;10.30;88.60;;;;;;5094310;28;20047;-72
2022/05/02 01:32:34;;;;;;;48.88;29.98;;;10.30;88.60;;;;;;5094241;28;20040;-72
2022/05/02 01:35:02;;;;;;;46.67;29.77;;;10.30;88.70;;;;;;5094190;28;20056;-73
2022/05/02 01:37:29;;;;;;;45.40;28.83;;;10.30;88.70;;;;;;5085643;28;20391;-73
2022/05/02 01:39:57;;;;;;;47.47;30.55;;;10.30;88.80;;;;;;5073540;28;20055;-73
2022/05/02 01:42:25;;;;;;;46.15;29.15;;;10.30;88.80;;;;;;5073131;28;20056;-73
2022/05/02 01:44:52;;;;;;;44.45;29.23;;;10.30;88.80;;;;;;5073608;28;20040;-73
2022/05/02 01:47:20;;;;;;;45.30;29.55;;;10.30;88.80;;;;;;5080563;28;20152;-73
2022/05/02 01:49:48;;;;;;;41.95;28.45;;;10.30;88.90;;;;;;5083054;28;20496;-72
2022/05/02 01:52:15;;;;;;;45.58;29.88;;;10.30;88.80;;;;;;5082482;28;20055;-73
2022/05/02 01:54:43;;;;;;;46.40;30.35;;;10.30;88.80;;;;;;5077024;28;20056;-73
2022/05/02 01:57:11;;;;;;;45.42;29.85;;;10.30;88.80;;;;;;5073838;28;20048;-73
2022/05/02 01:59:38;;;;;;;46.45;29.15;;;10.30;88.80;;;;;;5080769;28;20047;-75
2022/05/02 02:02:06;;;;;;;45.78;29.65;;;10.20;88.80;;;;;;5082407;28;20113;-73
2022/05/02 02:07:39;;;;;;;47.15;29.63;;;10.30;88.90;;;;;;5012624;28;20046;-73
2022/05/02 02:10:07;;;;;;;46.85;29.85;;;10.30;88.90;;;;;;5014822;28;20060;-73
2022/05/02 02:12:35;;;;;;;48.33;30.75;;;10.30;88.80;;;;;;5015049;28;20053;-72
2022/05/02 02:15:02;;;;;;;46.40;30.00;;;10.30;88.90;;;;;;5015048;28;20060;-72
2022/05/02 02:17:30;;;;;;;48.10;30.88;;;10.20;88.90;;;;;;5022125;28;20053;-73
2022/05/02 02:19:57;;;;;;;49.08;30.70;;;10.20;88.90;;;;;;5014329;28;20050;-72
2022/05/02 02:22:25;;;;;;;53.75;32.28;;;10.20;88.90;;;;;;5017794;28;20499;-72
2022/05/02 02:24:53;;;;;;;51.50;31.88;;;10.20;88.90;;;;;;5028119;28;20487;-73
2022/05/02 02:27:21;;;;;;;56.58;32.95;;;10.20;89.00;;;;;;5022459;28;20057;-72
2022/05/02 02:29:48;;;;;;;56.85;34.45;;;10.20;89.00;;;;;;5008597;28;20045;-73
2022/05/02 02:32:16;;;;;;;56.17;33.25;;;10.20;89.00;;;;;;5014055;28;20048;-72
2022/05/02 02:34:43;;;;;;;50.47;31.75;;;10.20;89.00;;;;;;5021216;28;20049;-73
2022/05/02 02:37:11;;;;;;;57.35;33.15;;;10.10;89.00;;;;;;5028579;28;20102;-72
2022/05/02 02:39:39;;;;;;;61.25;35.58;;;10.20;89.10;;;;;;5070082;28;20052;-72
2022/05/02 02:42:07;;;;;;;57.25;34.33;;;10.10;89.10;;;;;;5078468;28;20532;-72
2022/05/02 02:44:35;;;;;;;53.58;34.38;;;10.10;89.10;;;;;;5071551;28;20049;-73
2022/05/02 02:47:03;;;;;;;59.80;34.42;;;10.10;89.20;;;;;;5056907;28;20075;-73
2022/05/02 02:49:30;;;;;;;58.70;33.63;;;10.10;89.20;;;;;;5077025;28;20049;-72
2022/05/02 02:51:58;;;;;;;52.72;31.58;;;10.10;89.20;;;;;;5072121;28;20398;-73
2022/05/02 02:54:25;;;;;;;56.92;32.78;;;10.10;89.10;;;;;;5071890;28;20048;-72
2022/05/02 02:56:53;;;;;;;55.55;32.28;;;10.00;89.20;;;;;;5078458;28;20032;-73
2022/05/02 02:59:21;;;;;;;53.53;31.45;;;10.00;89.20;;;;;;5091521;28;20052;-72
2022/05/02 03:01:48;;;;;;;58.50;32.53;;;10.00;89.20;;;;;;5092648;28;20052;-72
2022/05/02 03:07:04;;;;;;;58.63;33.50;;;10.00;89.20;;;;;;5078801;28;20044;-72
2022/05/02 03:09:31;;;;;;;51.75;31.17;;;10.00;89.20;;;;;;5074659;28;20524;-72
2022/05/02 03:11:59;;;;;;;53.72;32.92;;;10.00;89.20;;;;;;5077841;28;20056;-72
2022/05/02 03:14:26;;;;;;;56.65;31.67;;;10.00;89.30;;;;;;5064189;28;20045;-73
2022/05/02 03:16:54;;;;;;;54.42;31.90;;;10.00;89.30;;;;;;5057797;28;20052;-72
2022/05/02 03:19:21;;;;;;;52.28;30.67;;;10.00;89.30;;;;;;5059555;28;20060;-74
2022/05/02 03:21:49;;;;;;;54.50;31.42;;;10.00;89.30;;;;;;5056382;28;20045;-73
2022/05/02 03:24:17;;;;;;;54.13;30.95;;;10.00;89.40;;;;;;5053864;28;20071;-72
2022/05/02 03:26:44;;;;;;;55.30;32.28;;;10.00;89.40;;;;;;5053459;28;20418;-72
2022/05/02 03:29:12;;;;;;;57.13;31.58;;;10.00;89.40;;;;;;5049586;28;20044;-72
2022/05/02 03:31:40;;;;;;;57.70;31.90;;;10.00;89.40;;;;;;5059872;28;20049;-72
2022/05/02 03:34:08;;;;;;;59.65;32.15;;;10.00;89.40;;;;;;5040786;28;20056;-71
2022/05/02 03:36:35;;;;;;;60.05;32.30;;;9.90;89.40;;;;;;5058150;28;20036;-73
2022/05/02 03:39:03;;;;;;;53.75;31.73;;;9.90;89.40;;;;;;5054854;28;20044;-72
2022/05/02 03:41:31;;;;;;;56.38;32.63;;;10.00;89.40;;;;;;5056748;28;20040;-73
2022/05/02 03:43:59;;;;;;;60.67;32.95;;;10.00;89.40;;;;;;5059845;28;20043;-73
2022/05/02 03:46:26;;;;;;;61.13;33.65;;;9.90;89.40;;;;;;5054342;28;20513;-72
2022/05/02 03:48:54;;;;;;;58.78;32.03;;;9.90;89.50;;;;;;5058622;28;20044;-72
2022/05/02 03:51:22;;;;;;;55.53;31.98;;;9.90;89.50;;;;;;5054533;28;20041;-73
2022/05/02 03:53:49;;;;;;;53.92;31.10;;;9.90;89.50;;;;;;5058646;28;20060;-73
2022/05/02 03:56:17;;;;;;;52.92;30.80;;;9.90;89.50;;;;;;5036470;28;20049;-72
2022/05/02 03:58:44;;;;;;;51.25;31.17;;;9.90;89.50;;;;;;5070830;28;20056;-73
2022/05/02 04:01:12;;;;;;;52.72;31.55;;;9.90;89.50;;;;;;5053343;28;20049;-72
2022/05/02 04:03:40;;;;;;;56.78;31.35;;;9.90;89.50;;;;;;5051762;28;20052;-72
2022/05/02 04:06:07;;;;;;;50.88;30.92;;;9.90;89.50;;;;;;5050636;28;20075;-73
2022/05/02 04:08:35;;;;;;;50.72;29.52;;;9.90;89.50;;;;;;5033813;28;20049;-73
2022/05/02 04:11:03;;;;;;;51.42;30.05;;;9.90;89.50;;;;;;5054040;28;20501;-71
2022/05/02 04:13:30;;;;;;;50.72;30.50;;;9.90;89.50;;;;;;5053343;28;20048;-72
2022/05/02 04:15:58;;;;;;;47.90;29.70;;;9.90;89.50;;;;;;5051489;28;20048;-72
2022/05/02 04:18:25;;;;;;;52.78;30.13;;;9.90;89.50;;;;;;5051169;28;20048;-72
2022/05/02 04:20:53;;;;;;;52.92;30.67;;;9.90;89.50;;;;;;5066312;28;20065;-72
2022/05/02 04:23:21;;;;;;;54.90;31.08;;;9.90;89.50;;;;;;5071014;28;20045;-73
2022/05/02 04:25:48;;;;;;;54.45;30.63;;;9.90;89.50;;;;;;5071256;28;20390;-73
2022/05/02 04:28:16;;;;;;;50.95;30.30;;;9.90;89.50;;;;;;5062827;28;20406;-71
2022/05/02 04:30:43;;;;;;;49.38;28.95;;;9.90;89.60;;;;;;5054277;28;20060;-71
2022/05/02 04:33:12;;;;;;;54.25;31.08;;;9.90;89.60;;;;;;5053884;28;20055;-71
2022/05/02 04:35:40;;;;;;;52.92;30.55;;;9.90;89.60;;;;;;5051355;28;20052;-72
2022/05/02 04:38:07;;;;;;;56.50;32.13;;;9.90;89.60;;;;;;5058386;28;20127;-72
2022/05/02 04:40:35;;;;;;;51.15;31.13;;;9.90;89.60;;;;;;5058909;28;20045;-73
2022/05/02 04:43:02;;;;;;;55.33;31.80;;;9.90;89.60;;;;;;5056771;28;20470;-72
2022/05/02 04:45:30;;;;;;;58.97;32.25;;;9.90;89.60;;;;;;5039869;28;20041;-73
2022/05/02 04:47:57;;;;;;;58.70;32.15;;;9.90;89.60;;;;;;5038447;28;20048;-72
2022/05/02 04:50:25;;;;;;;55.03;31.95;;;9.90;89.60;;;;;;5060773;28;20037;-72
2022/05/02 04:52:53;;;;;;;55.55;32.17;;;9.90;89.60;;;;;;5038236;28;20037;-72
2022/05/02 04:55:20;;;;;;;53.15;32.33;;;9.90;89.70;;;;;;5057374;28;20062;-72
2022/05/02 04:57:48;;;;;;;54.15;32.42;;;9.90;89.60;;;;;;5071022;28;20036;-72
2022/05/02 05:00:16;;;;;;;54.10;31.77;;;9.90;89.60;;;;;;5066875;28;20052;-73
2022/05/02 05:02:44;;;;;;;52.78;30.95;;;9.90;89.70;;;;;;5065337;28;20056;-72
2022/05/02 05:05:12;;;;;;;55.75;31.00;;;9.90;89.60;;;;;;5038658;28;20053;-73
2022/05/02 05:07:39;;;;;;;53.65;30.65;;;9.90;89.60;;;;;;5043716;28;20047;-73
2022/05/02 05:10:09;;;;;;;54.17;31.27;;;10.00;89.60;;;;;;5063363;28;20059;-72
2022/05/02 05:13:04;;;;;;;61.65;33.28;;;9.90;89.60;;;;;;5058530;28;20056;-72
2022/05/02 05:18:40;;;;;;;49.65;31.17;;;10.00;89.60;;;;;;5055769;28;20485;-72
2022/05/02 05:21:17;;;;;;;56.05;32.10;;;10.00;89.60;;;;;;5062184;28;20528;-73
2022/05/02 05:23:57;;;;;;;55.65;31.83;;;10.00;89.50;;;;;;5056585;28;20100;-71
2022/05/02 05:26:40;;;;;;;56.85;31.30;;;10.00;89.50;;;;;;5044459;28;20044;-72
2022/05/02 05:29:45;;;;;;;59.93;32.27;;;10.00;89.50;;;;;;5054262;28;20053;-72
2022/05/02 05:32:27;;;;;;;56.80;31.35;;;10.10;89.50;;;;;;5056876;28;20064;-72
2022/05/02 05:34:55;;;;;;;53.90;30.27;;;10.10;89.50;;;;;;5059978;28;20418;-71
2022/05/02 05:37:44;;;;;;;50.15;30.27;;;10.10;89.50;;;;;;5053355;28;20454;-72
2022/05/02 05:40:38;;;;;;;45.65;27.88;;;10.10;89.40;;;;;;5058884;28;20398;-71
2022/05/02 05:43:32;;;;;;;47.15;28.02;;;10.10;89.40;;;;;;5057725;28;20056;-72
2022/05/02 05:46:15;;;;;;;44.60;27.30;;;10.20;89.40;;;;;;5037711;28;20048;-72
2022/05/02 05:49:08;;;;;;;47.22;28.08;;;10.30;89.40;;;;;;5060172;28;20044;-72
2022/05/02 05:51:48;;;;;;;46.60;28.05;;;10.30;89.30;;;;;;5054700;28;20045;-72
2022/05/02 05:54:39;;;;;;;45.67;27.13;;;10.30;89.30;;;;;;5054218;28;20052;-72
2022/05/02 05:57:15;;;;;;;42.00;26.30;;;10.30;89.30;;;;;;5045841;28;20045;-72
2022/05/02 06:00:27;;;;;;;45.03;27.27;;;10.40;89.30;;;;;;5035706;28;20045;-72
2022/05/02 06:03:15;;;;;;;39.53;26.05;;;10.40;89.20;;;;;;4985174;28;20093;-72
2022/05/02 06:05:47;;;;;;;39.53;24.17;;;10.50;89.20;;;;;;4971863;28;20070;-72
2022/05/02 06:08:19;;;;;;;38.58;25.00;;;10.50;89.10;;;;;;4980996;28;20551;-72
2022/05/02 06:10:50;;;;;;;40.85;25.30;;;10.50;89.10;;;;;;4991296;28;20551;-73
2022/05/02 06:13:19;;;;;;;40.90;24.65;;;10.60;89.10;;;;;;5017846;28;20057;-72
2022/05/02 06:18:58;;;;;;;39.65;25.45;;;10.70;89.00;;;;;;5010820;28;20531;-73
2022/05/02 06:21:26;;;;;;;37.15;25.13;;;10.70;88.90;;;;;;5011188;28;20523;-73
2022/05/02 06:23:55;;;;;;;36.15;24.42;;;10.70;88.90;;;;;;5016878;28;20506;-72
2022/05/02 06:26:23;;;;;;;40.25;25.60;;;10.80;88.90;;;;;;5030374;28;20060;-73
2022/05/02 06:28:52;;;;;;;37.33;24.67;;;10.80;88.90;;;;;;5030287;28;20790;-72
2022/05/02 06:31:24;;;;;;;38.58;23.67;;;10.90;88.80;;;;;;5014016;28;20506;-72
2022/05/02 06:33:52;;;;;;;34.97;22.52;;;10.90;88.70;;;;;;5030357;28;20534;-72
2022/05/02 06:36:31;;;;;;;30.75;23.05;;;11.00;88.70;;;;;;5027402;28;20055;-72
2022/05/02 06:39:20;;;;;;;37.30;24.13;;;11.10;88.60;;;;;;5087820;28;20040;-73
2022/05/02 06:42:16;;;;;;;34.75;23.63;;;11.10;88.60;;;;;;5072638;28;20055;-73
2022/05/02 06:45:03;;;;;;;35.60;22.65;;;11.20;88.50;;;;;;5072575;28;20068;-72
2022/05/02 06:47:56;;;;;;;32.03;23.25;;;11.30;88.30;;;;;;5072478;28;20036;-72
2022/05/02 06:50:25;;;;;;;34.72;23.20;;;11.30;88.30;;;;;;5072161;28;20525;-72
2022/05/02 06:53:11;;;;;;;30.98;22.63;;;11.40;88.20;;;;;;5072427;28;20045;-73
2022/05/02 06:55:49;;;;;;;31.35;21.83;;;11.50;88.10;;;;;;5072614;28;20044;-72
2022/05/02 06:58:35;;;;;;;31.42;21.42;;;11.60;88.00;;;;;;5072152;28;20044;-72
2022/05/02 07:01:20;;;;;;;34.83;22.33;;;11.60;87.90;;;;;;5073468;28;20429;-72
2022/05/02 07:04:02;;;;;;;33.53;22.35;;;11.80;87.80;;;;;;5071499;28;20485;-72
2022/05/02 07:07:10;;;;;;;32.38;23.13;;;11.80;87.70;;;;;;5073238;28;20421;-72
2022/05/02 07:09:52;;;;;;;32.42;22.63;;;11.80;87.50;;;;;;5072243;28;20045;-72
2022/05/02 07:12:23;;;;;;;32.85;22.55;;;12.00;87.40;;;;;;5071964;28;20053;-72
2022/05/02 07:15:04;;;;;;;28.45;21.25;;;12.00;87.20;;;;;;5057547;28;20052;-73
2022/05/02 07:17:35;;;;;;;34.60;20.83;;;12.10;87.10;;;;;;5051989;28;20060;-72
2022/05/02 07:20:08;;;;;;;33.30;22.48;;;12.10;86.90;;;;;;5052237;28;20068;-72
2022/05/02 07:22:42;;;;;;;30.88;22.25;;;12.20;86.90;;;;;;5053516;28;20040;-72
2022/05/02 07:25:13;;;;;;;28.73;21.42;;;12.30;86.60;;;;;;5071801;28;20051;-72
2022/05/02 07:27:43;;;;;;;31.77;22.80;;;12.30;86.50;;;;;;5052045;28;20482;-72
2022/05/02 07:30:12;;;;;;;30.92;21.65;;;12.30;86.40;;;;;;5051977;28;20052;-72
2022/05/02 07:32:39;;;;;;;29.25;20.95;;;12.50;86.30;;;;;;5050953;28;20064;-73
2022/05/02 07:35:08;;;;;;;29.35;21.27;;;12.60;86.10;;;;;;5051833;28;20072;-73
2022/05/02 07:37:36;;;;;;;27.13;19.65;;;12.60;86.00;;;;;;5071815;28;20048;-73
2022/05/02 07:40:05;;;;;;;30.75;20.98;;;12.70;85.80;;;;;;5069700;28;20064;-73
2022/05/02 07:42:36;;;;;;;32.03;20.77;;;12.80;85.70;;;;;;5072116;28;20044;-73
2022/05/02 07:45:07;;;;;;;29.33;20.02;;;12.80;85.50;;;;;;5063390;28;20066;-73
2022/05/02 07:47:36;;;;;;;27.77;20.17;;;12.80;85.30;;;;;;5080272;28;20048;-73
2022/05/02 07:50:05;;;;;;;31.30;20.27;;;12.80;85.00;;;;;;5079725;28;20512;-73
2022/05/02 07:52:36;;;;;;;29.55;20.00;;;12.90;85.00;;;;;;5061082;28;20040;-73
2022/05/02 07:55:04;;;;;;;26.33;19.77;;;13.00;85.00;;;;;;5079744;28;20059;-73
2022/05/02 07:57:33;;;;;;;25.83;20.27;;;13.00;85.00;;;;;;5082227;28;20067;-73
2022/05/02 08:00:02;;;;;;;26.25;18.95;;;13.20;84.80;;;;;;5062071;28;20052;-74
2022/05/02 08:02:38;;;;;;;27.20;19.83;;;13.20;84.50;;;;;;5060703;28;20063;-73
2022/05/02 08:05:07;;;;;;;29.30;20.98;;;13.20;84.20;;;;;;5081114;28;20051;-73
2022/05/02 08:07:36;;;;;;;25.60;19.20;;;13.20;84.10;;;;;;5063976;28;20044;-73
2022/05/02 08:10:37;;;;;;;24.35;19.08;;;13.20;83.90;;;;;;5083300;28;20051;-73
2022/05/02 08:13:05;;;;;;;27.33;19.95;;;13.20;83.80;;;;;;5083744;28;20048;-72
2022/05/02 08:15:40;;;;;;;26.13;19.75;;;13.20;83.70;;;;;;5078966;28;20413;-72
2022/05/02 08:18:30;;;;;;;23.88;18.33;;;13.20;83.70;;;;;;5084852;28;20493;-73
2022/05/02 08:21:22;;;;;;;24.25;18.90;;;13.30;83.30;;;;;;5086199;28;20040;-73
2022/05/02 08:27:31;;;;;;;26.13;18.65;;;13.30;83.30;;;;;;5082215;28;20043;-73
2022/05/02 08:30:11;;;;;;;23.95;18.88;;;13.40;83.10;;;;;;5080635;28;20063;-73
2022/05/02 08:32:59;;;;;;;22.30;17.70;;;13.50;82.80;;;;;;5062141;28;20047;-73
2022/05/02 08:35:39;;;;;;;23.27;16.85;;;13.60;82.60;;;;;;5064655;28;20055;-73
2022/05/02 08:38:07;;;;;;;21.90;17.27;;;13.60;82.30;;;;;;5078325;28;20040;-73
2022/05/02 08:40:48;;;;;;;24.33;18.42;;;13.70;82.10;;;;;;5080457;28;20044;-73
2022/05/02 08:43:30;;;;;;;27.48;19.00;;;13.80;81.90;;;;;;5084694;28;20535;-73
2022/05/02 08:46:35;;;;;;;26.17;18.40;;;13.80;81.60;;;;;;5078213;28;20053;-72
2022/05/02 08:49:33;;;;;;;23.55;17.90;;;13.90;81.30;;;;;;5082577;28;20063;-72
2022/05/02 08:52:37;;;;;;;25.15;19.13;;;14.00;80.90;;;;;;5079648;28;20040;-72
2022/05/02 08:55:46;;;;;;;21.65;17.65;;;14.00;80.90;;;;;;5079267;28;20053;-73
2022/05/02 08:58:50;;;;;;;22.60;17.90;;;14.00;80.50;;;;;;5005155;28;20435;-73
2022/05/02 09:01:37;;;;;;;;;;;14.00;80.60;;;;;;5005204;28;20057;-74
2022/05/02 09:04:29;;;;;;;27.00;18.50;;;14.00;80.50;;;;;;5004194;28;19921;-73
2022/05/02 09:07:30;;;;;;;26.05;18.70;;;14.00;80.60;;;;;;5006429;28;20045;-72
2022/05/02 09:10:10;;;;;;;24.40;18.48;;;14.10;80.20;;;;;;4987734;28;20057;-73
2022/05/02 09:13:10;;;;;;;26.27;19.33;;;14.10;80.10;;;;;;5009219;28;20049;-72
2022/05/02 09:16:08;;;;;;;24.50;18.85;;;14.00;80.10;;;;;;4987744;28;20046;-72
2022/05/02 09:18:54;;;;;;;23.45;17.75;;;14.10;80.10;;;;;;5002423;28;20045;-72
2022/05/02 09:21:40;;;;;;;22.13;18.15;;;14.20;79.90;;;;;;4992880;28;20050;-72
2022/05/02 09:24:16;;;;;;;23.53;17.37;;;14.30;79.50;;;;;;4999851;28;20050;-72
2022/05/02 09:26:56;;;;;;;20.73;16.83;;;14.40;79.20;;;;;;5003241;28;20072;-73
2022/05/02 09:29:55;;;;;;;20.35;17.27;;;14.60;78.70;;;;;;5046915;28;20049;-74
2022/05/02 09:32:33;;;;;;;22.35;16.52;;;14.60;78.20;;;;;;5082448;28;20047;-73
2022/05/02 09:35:05;;;;;;;25.55;18.00;;;14.60;77.80;;;;;;5074509;28;20035;-73
2022/05/02 09:37:39;;;;;;;21.55;16.80;;;14.70;77.70;;;;;;5080787;28;20539;-74
2022/05/02 09:40:12;;;;;;;20.48;17.30;;;14.70;77.50;;;;;;5079367;28;20477;-73
2022/05/02 09:43:04;;;;;;;18.33;15.77;;;14.80;77.60;;;;;;5073576;28;20040;-73
2022/05/02 09:52:00;;;;;;;21.17;16.35;;;15.10;76.40;;;;;;5077068;28;20049;-74
2022/05/02 09:58:19;;;;;;;20.13;15.93;;;15.40;75.50;;;;;;5002626;28;20053;-74
2022/05/02 10:01:13;;;;;;;20.35;15.95;;;15.60;75.10;;;;;;5000706;28;20060;-72
2022/05/02 10:03:53;;;;;;;18.25;15.10;;;15.70;74.50;;;;;;5000058;28;20451;-73
2022/05/02 10:06:34;;;;;;;19.38;15.60;;;15.70;74.10;;;;;;4993821;28;20054;-72
2022/05/02 10:09:20;;;;;;;18.30;14.40;;;15.80;73.50;;;;;;4997194;28;20060;-73
2022/05/02 10:12:10;;;;;;;17.15;14.10;;;15.80;73.10;;;;;;4995700;28;20038;-73
2022/05/02 10:14:59;;;;;;;21.05;13.98;;;15.80;72.60;;;;;;5041128;28;20048;-72
2022/05/02 10:17:32;;;;;;;18.58;14.85;;;15.80;72.40;;;;;;5035069;28;20058;-73
2022/05/02 10:20:19;;;;;;;14.93;13.32;;;15.90;72.50;;;;;;5036126;28;20037;-73
2022/05/02 10:23:02;;;;;;;16.25;13.20;;;15.90;72.00;;;;;;5032152;28;20042;-73
2022/05/02 10:25:41;;;;;;;17.67;14.20;;;15.80;71.40;;;;;;5018980;28;20050;-73
2022/05/02 10:28:48;;;;;;;16.83;13.05;;;15.80;71.40;;;;;;5036062;28;20490;-73
2022/05/02 10:31:25;;;;;;;15.00;13.30;;;15.80;71.20;;;;;;5031945;28;20049;-74
2022/05/02 10:33:54;;;;;;;16.27;13.68;;;15.70;70.50;;;;;;5073141;28;20051;-74
2022/05/02 10:36:28;;;;;;;15.18;12.98;;;15.70;70.40;;;;;;5094415;28;20055;-74
2022/05/02 10:39:05;;;;;;;17.33;12.73;;;15.70;70.70;;;;;;5090724;28;20051;-74
2022/05/02 10:41:47;;;;;;;15.23;12.85;;;15.70;70.60;;;;;;5100502;28;20134;-73
2022/05/02 10:44:16;;;;;;;13.18;11.70;;;15.70;70.30;;;;;;5084371;28;20397;-72
2022/05/02 10:46:46;;;;;;;14.30;11.82;;;15.70;70.00;;;;;;5092780;28;20385;-74
2022/05/02 10:49:51;;;;;;;18.00;14.50;;;15.80;70.20;;;;;;5090339;28;20036;-73
2022/05/02 10:52:37;;;;;;;16.17;14.05;;;15.80;70.00;;;;;;5084052;28;20480;-72
2022/05/02 10:55:12;;;;;;;19.48;14.88;;;15.80;69.90;;;;;;5086482;28;20487;-72
2022/05/02 10:57:50;;;;;;;18.15;15.18;;;15.80;70.00;;;;;;5092343;28;20047;-74
2022/05/02 11:00:19;;;;;;;18.23;15.10;;;15.70;70.00;;;;;;5086445;28;20047;-73
2022/05/02 11:02:55;;;;;;;19.13;14.98;;;15.70;70.20;;;;;;5072451;28;20194;-75
2022/05/02 11:05:28;;;;;;;18.67;16.25;;;15.60;70.10;;;;;;5078447;28;20041;-72
2022/05/02 11:08:12;;;;;;;19.25;15.75;;;15.50;70.50;;;;;;5086205;28;20481;-72
2022/05/02 11:11:06;;;;;;;18.42;15.93;;;15.50;70.90;;;;;;5087225;28;20114;-72
2022/05/02 11:14:20;;;;;;;22.05;17.83;;;15.60;71.00;;;;;;5074829;28;20060;-72
2022/05/02 11:17:03;;;;;;;22.42;18.45;;;15.60;70.60;;;;;;4994260;28;20046;-77
2022/05/02 11:22:41;;;;;;;24.35;18.38;;;15.60;70.70;;;;;;5017942;28;20044;-74
2022/05/02 11:25:20;;;;;;;23.48;17.92;;;15.50;70.50;;;;;;5017051;28;20065;-74
2022/05/02 11:28:26;;;;;;;19.55;16.05;;;15.50;70.60;;;;;;5014077;28;20057;-74
2022/05/02 11:31:12;;;;;;;22.15;17.10;;;15.50;70.60;;;;;;4990939;28;20048;-77
2022/05/02 11:34:00;;;;;;;20.75;17.02;;;15.50;70.60;;;;;;5009021;28;20049;-74
2022/05/02 11:36:33;;;;;;;19.20;16.58;;;15.50;70.40;;;;;;5013650;28;20389;-74
2022/05/02 11:39:03;;;;;;;21.65;16.58;;;15.60;70.40;;;;;;5008957;28;20073;-74
2022/05/02 11:41:32;;;;;;;19.50;15.63;;;15.70;70.40;;;;;;5020703;28;20041;-74
2022/05/02 11:44:13;;;;;;;19.75;15.65;;;15.70;69.90;;;;;;5008315;28;20439;-75
2022/05/02 11:47:16;;;;;;;24.40;16.25;;;15.60;69.70;;;;;;5019126;28;20050;-74
2022/05/02 11:49:47;;;;;;;18.10;14.98;;;15.70;69.70;;;;;;5022511;28;20037;-74
2022/05/02 11:52:31;;;;;;;18.33;14.75;;;15.70;69.70;;;;;;5089087;28;20490;-74
2022/05/02 11:55:01;;;;;;;22.38;15.77;;;15.80;69.30;;;;;;5092657;28;20047;-74
2022/05/02 11:57:39;;;;;;;22.35;16.83;;;15.80;68.80;;;;;;5094168;28;20057;-74
2022/05/02 12:00:15;;;;;;;22.85;17.40;;;15.80;68.70;;;;;;5088306;28;20044;-74
2022/05/02 12:02:48;;;;;;;22.95;17.45;;;15.80;68.70;;;;;;5090578;28;20048;-74
2022/05/02 12:05:25;;;;;;;24.42;17.38;;;15.90;68.80;;;;;;5086819;28;20040;-75
2022/05/02 12:08:01;;;;;;;23.95;16.73;;;15.90;68.50;;;;;;5087316;28;20036;-74
2022/05/02 12:10:39;;;;;;;26.38;17.98;;;15.90;68.40;;;;;;5091687;28;20043;-74
2022/05/02 12:13:12;;;;;;;26.45;18.23;;;15.80;68.50;;;;;;5064439;28;20053;-74
2022/05/02 12:16:00;;;;;;;26.58;18.58;;;15.80;68.50;;;;;;5061963;28;20059;-74
2022/05/02 12:19:05;;;;;;;28.98;19.23;;;15.70;68.80;;;;;;5052965;28;20064;-74
2022/05/02 12:21:39;;;;;;;28.00;18.40;;;15.60;69.20;;;;;;5012938;28;20049;-74
2022/05/02 12:24:09;;;;;;;25.63;18.50;;;15.70;69.20;;;;;;5038291;28;20052;-74
2022/05/02 12:26:51;;;;;;;26.17;17.83;;;15.70;68.70;;;;;;5060681;28;20060;-74
2022/05/02 12:29:20;;;;;;;23.95;17.83;;;15.70;68.60;;;;;;5039594;28;20506;-74
2022/05/02 12:32:00;;;;;;;23.30;17.00;;;15.70;68.50;;;;;;5052031;28;20398;-75
2022/05/02 12:34:39;;;;;;;26.55;17.95;;;15.70;68.40;;;;;;5071001;28;20047;-75
2022/05/02 12:37:23;;;;;;;27.77;19.58;;;15.70;68.10;;;;;;5071258;28;20044;-75
2022/05/02 12:40:03;;;;;;;27.05;19.50;;;15.70;68.20;;;;;;5071573;28;20060;-75
2022/05/02 12:42:44;;;;;;;27.75;19.35;;;15.70;68.30;;;;;;5081473;28;20059;-75
2022/05/02 12:45:15;;;;;;;30.67;19.77;;;15.70;68.60;;;;;;5087745;28;20055;-75
2022/05/02 12:47:48;;;;;;;29.15;19.95;;;15.70;68.70;;;;;;5074162;28;20045;-74
2022/05/02 12:50:21;;;;;;;34.20;21.08;;;15.70;68.70;;;;;;5062303;28;20049;-74
2022/05/02 12:52:51;;;;;;;33.45;21.38;;;15.70;68.50;;;;;;5068579;28;20037;-73
2022/05/02 12:55:21;;;;;;;35.85;20.98;;;15.70;68.40;;;;;;5062220;28;20159;-77
2022/05/02 13:00:46;;;;;;;31.33;20.90;;;15.50;68.80;;;;;;5058164;28;20041;-74
2022/05/02 13:03:17;;;;;;;33.63;20.60;;;15.50;69.10;;;;;;5056474;28;20494;-73
2022/05/02 13:06:08;;;;;;;31.98;20.95;;;15.40;69.20;;;;;;5045284;28;20120;-72
2022/05/02 13:08:41;;;;;;;31.45;20.98;;;15.40;69.30;;;;;;5078026;28;20048;-73
2022/05/02 13:11:16;;;;;;;32.00;21.67;;;15.40;69.30;;;;;;5074987;28;20052;-74
2022/05/02 13:13:49;;;;;;;30.33;20.63;;;15.40;69.20;;;;;;5056776;28;20079;-74
2022/05/02 13:16:33;;;;;;;;;;;15.40;69.30;;;;;;5041303;28;20048;-73
2022/05/02 13:19:04;;;;;;;32.40;20.88;;;15.30;69.50;;;;;;5068744;28;19928;-73
2022/05/02 13:21:32;;;;;;;29.38;20.75;;;15.30;69.70;;;;;;5076683;28;20051;-72
2022/05/02 13:24:05;;;;;;;27.63;20.42;;;15.30;69.70;;;;;;5067881;28;20071;-74
2022/05/02 13:26:40;;;;;;;;;;;15.30;69.70;;;;;;5056377;28;20064;-74
2022/05/02 13:29:08;;;;;;;29.02;21.25;;;15.30;69.90;;;;;;5089807;28;20300;-73
2022/05/02 13:31:56;;;;;;;27.75;21.02;;;15.30;70.10;;;;;;5079602;28;20402;-74
2022/05/02 13:34:43;;;;;;;29.67;21.02;;;15.30;70.20;;;;;;5082320;28;20051;-73
2022/05/02 13:37:26;;;;;;;28.10;20.63;;;15.30;70.20;;;;;;5066259;28;20049;-73
2022/05/02 13:40:02;;;;;;;27.17;20.02;;;15.30;70.30;;;;;;5079694;28;20052;-73